sensor_id;sensor_type;location;lat;lon;timestamp;P1;durP1;ratioP1;P2;durP2;ratioP2
2157;SDS011;41972;48.774;9.282;2024-01-11T00:02:21;64.20;;;43.47;;
2157;SDS011;41972;48.774;9.282;2024-01-11T00:04:47;70.67;;;63.03;;
2157;SDS011;41972;48.774;9.282;2024-01-11T00:07:12;64.87;;;57.97;;
2157;SDS011;41972;48.774;9.282;2024-01-11T00:09:39;65.47;;;58.50;;
2157;SDS011;41972;48.774;9.282;2024-01-11T00:12:06;67.90;;;60.20;;
2157;SDS011;41972;48.774;9.282;2024-01-11T00:14:31;67.47;;;59.70;;
2157;SDS011;41972;48.774;9.282;2024-01-11T00:16:57;56.00;;;48.23;;
2157;SDS011;41972;48.774;9.282;2024-01-11T00:19:22;62.73;;;53.33;;
2157;SDS011;41972;48.774;9.282;2024-01-11T00:21:48;64.87;;;46.93;;
2157;SDS011;41972;48.774;9.282;2024-01-11T00:24:13;70.70;;;49.40;;
2157;SDS011;41972;48.774;9.282;2024-01-11T00:26:39;69.37;;;50.93;;
2157;SDS011;41972;48.774;9.282;2024-01-11T00:29:04;60.77;;;43.37;;
2157;SDS011;41972;48.774;9.282;2024-01-11T00:31:30;61.10;;;46.27;;
2157;SDS011;41972;48.774;9.282;2024-01-11T00:33:55;61.13;;;47.10;;
2157;SDS011;41972;48.774;9.282;2024-01-11T00:36:21;64.50;;;49.67;;
2157;SDS011;41972;48.774;9.282;2024-01-11T00:38:46;61.33;;;45.67;;
2157;SDS011;41972;48.774;9.282;2024-01-11T00:41:12;63.40;;;47.43;;
2157;SDS011;41972;48.774;9.282;2024-01-11T00:43:37;59.50;;;47.33;;
2157;SDS011;41972;48.774;9.282;2024-01-11T00:46:03;60.33;;;51.50;;
2157;SDS011;41972;48.774;9.282;2024-01-11T00:48:29;69.37;;;52.67;;
2157;SDS011;41972;48.774;9.282;2024-01-11T00:50:54;60.23;;;46.83;;
2157;SDS011;41972;48.774;9.282;2024-01-11T00:53:20;63.80;;;52.40;;
2157;SDS011;41972;48.774;9.282;2024-01-11T00:55:45;78.60;;;64.93;;
2157;SDS011;41972;48.774;9.282;2024-01-11T00:58:11;65.87;;;45.97;;
2157;SDS011;41972;48.774;9.282;2024-01-11T01:00:36;55.33;;;43.73;;
2157;SDS011;41972;48.774;9.282;2024-01-11T01:03:02;63.53;;;56.63;;
2157;SDS011;41972;48.774;9.282;2024-01-11T01:05:28;61.80;;;43.53;;
2157;SDS011;41972;48.774;9.282;2024-01-11T01:07:53;70.70;;;59.10;;
2157;SDS011;41972;48.774;9.282;2024-01-11T01:10:19;76.13;;;62.33;;
2157;SDS011;41972;48.774;9.282;2024-01-11T01:12:44;64.67;;;44.70;;
2157;SDS011;41972;48.774;9.282;2024-01-11T01:15:10;65.40;;;46.23;;
2157;SDS011;41972;48.774;9.282;2024-01-11T01:17:35;74.67;;;52.23;;
2157;SDS011;41972;48.774;9.282;2024-01-11T01:20:01;67.43;;;47.57;;
2157;SDS011;41972;48.774;9.282;2024-01-11T01:22:28;69.45;;;52.03;;
2157;SDS011;41972;48.774;9.282;2024-01-11T01:24:54;63.73;;;46.00;;
2157;SDS011;41972;48.774;9.282;2024-01-11T01:27:19;63.63;;;49.80;;
2157;SDS011;41972;48.774;9.282;2024-01-11T01:29:45;63.07;;;48.20;;
2157;SDS011;41972;48.774;9.282;2024-01-11T01:32:11;61.50;;;47.10;;
2157;SDS011;41972;48.774;9.282;2024-01-11T01:34:36;62.57;;;50.37;;
2157;SDS011;41972;48.774;9.282;2024-01-11T01:37:02;66.53;;;45.53;;
2157;SDS011;41972;48.774;9.282;2024-01-11T01:39:27;68.50;;;48.40;;
2157;SDS011;41972;48.774;9.282;2024-01-11T01:41:53;64.43;;;49.60;;
2157;SDS011;41972;48.774;9.282;2024-01-11T01:44:18;69.93;;;58.03;;
2157;SDS011;41972;48.774;9.282;2024-01-11T01:46:44;84.77;;;76.17;;
2157;SDS011;41972;48.774;9.282;2024-01-11T01:49:10;66.67;;;53.80;;
2157;SDS011;41972;48.774;9.282;2024-01-11T01:51:36;66.88;;;50.53;;
2157;SDS011;41972;48.774;9.282;2024-01-11T01:54:02;72.38;;;58.20;;
2157;SDS011;41972;48.774;9.282;2024-01-11T01:56:28;71.87;;;50.30;;
2157;SDS011;41972;48.774;9.282;2024-01-11T01:58:54;72.60;;;46.63;;
2157;SDS011;41972;48.774;9.282;2024-01-11T02:01:21;74.27;;;52.47;;
2157;SDS011;41972;48.774;9.282;2024-01-11T02:03:49;73.78;;;52.17;;
2157;SDS011;41972;48.774;9.282;2024-01-11T02:06:16;70.32;;;52.97;;
2157;SDS011;41972;48.774;9.282;2024-01-11T02:08:43;63.00;;;51.13;;
2157;SDS011;41972;48.774;9.282;2024-01-11T02:11:10;71.55;;;50.58;;
2157;SDS011;41972;48.774;9.282;2024-01-11T02:13:36;77.40;;;53.03;;
2157;SDS011;41972;48.774;9.282;2024-01-11T02:16:02;68.25;;;45.05;;
2157;SDS011;41972;48.774;9.282;2024-01-11T02:18:29;63.10;;;44.47;;
2157;SDS011;41972;48.774;9.282;2024-01-11T02:20:55;67.83;;;60.73;;
2157;SDS011;41972;48.774;9.282;2024-01-11T02:23:21;65.30;;;57.38;;
2157;SDS011;41972;48.774;9.282;2024-01-11T02:25:49;66.45;;;58.25;;
2157;SDS011;41972;48.774;9.282;2024-01-11T02:28:14;71.90;;;53.93;;
2157;SDS011;41972;48.774;9.282;2024-01-11T02:30:40;78.10;;;69.60;;
2157;SDS011;41972;48.774;9.282;2024-01-11T02:33:06;73.77;;;62.30;;
2157;SDS011;41972;48.774;9.282;2024-01-11T02:35:32;71.05;;;50.17;;
2157;SDS011;41972;48.774;9.282;2024-01-11T02:37:59;65.82;;;49.05;;
2157;SDS011;41972;48.774;9.282;2024-01-11T02:40:25;71.10;;;47.97;;
2157;SDS011;41972;48.774;9.282;2024-01-11T02:42:51;59.93;;;45.33;;
2157;SDS011;41972;48.774;9.282;2024-01-11T02:45:17;65.03;;;48.83;;
2157;SDS011;41972;48.774;9.282;2024-01-11T02:47:43;74.43;;;46.67;;
2157;SDS011;41972;48.774;9.282;2024-01-11T02:50:09;67.70;;;51.43;;
2157;SDS011;41972;48.774;9.282;2024-01-11T02:52:36;73.07;;;52.88;;
2157;SDS011;41972;48.774;9.282;2024-01-11T02:55:02;68.50;;;46.07;;
2157;SDS011;41972;48.774;9.282;2024-01-11T02:57:28;69.43;;;54.40;;
2157;SDS011;41972;48.774;9.282;2024-01-11T02:59:54;74.63;;;49.30;;
2157;SDS011;41972;48.774;9.282;2024-01-11T03:02:19;76.63;;;68.43;;
2157;SDS011;41972;48.774;9.282;2024-01-11T03:04:45;72.30;;;53.23;;
2157;SDS011;41972;48.774;9.282;2024-01-11T03:07:11;90.67;;;82.10;;
2157;SDS011;41972;48.774;9.282;2024-01-11T03:09:37;81.60;;;73.80;;
2157;SDS011;41972;48.774;9.282;2024-01-11T03:12:02;86.67;;;78.70;;
2157;SDS011;41972;48.774;9.282;2024-01-11T03:14:28;83.00;;;74.18;;
2157;SDS011;41972;48.774;9.282;2024-01-11T03:16:54;81.47;;;73.10;;
2157;SDS011;41972;48.774;9.282;2024-01-11T03:19:19;84.27;;;57.47;;
2157;SDS011;41972;48.774;9.282;2024-01-11T03:21:45;65.63;;;56.63;;
2157;SDS011;41972;48.774;9.282;2024-01-11T03:24:11;64.13;;;48.70;;
2157;SDS011;41972;48.774;9.282;2024-01-11T03:26:38;69.45;;;61.85;;
2157;SDS011;41972;48.774;9.282;2024-01-11T03:29:04;80.63;;;72.40;;
2157;SDS011;41972;48.774;9.282;2024-01-11T03:31:30;75.17;;;62.43;;
2157;SDS011;41972;48.774;9.282;2024-01-11T03:33:55;77.57;;;55.30;;
2157;SDS011;41972;48.774;9.282;2024-01-11T03:36:23;71.07;;;52.70;;
2157;SDS011;41972;48.774;9.282;2024-01-11T03:38:50;73.55;;;58.75;;
2157;SDS011;41972;48.774;9.282;2024-01-11T03:41:16;69.57;;;55.15;;
2157;SDS011;41972;48.774;9.282;2024-01-11T03:43:41;82.70;;;56.43;;
2157;SDS011;41972;48.774;9.282;2024-01-11T03:46:07;66.60;;;45.40;;
2157;SDS011;41972;48.774;9.282;2024-01-11T03:48:32;75.17;;;50.20;;
2157;SDS011;41972;48.774;9.282;2024-01-11T03:50:58;65.40;;;52.10;;
2157;SDS011;41972;48.774;9.282;2024-01-11T03:53:23;72.30;;;61.33;;
2157;SDS011;41972;48.774;9.282;2024-01-11T03:55:49;74.97;;;62.03;;
2157;SDS011;41972;48.774;9.282;2024-01-11T03:58:15;70.57;;;55.93;;
2157;SDS011;41972;48.774;9.282;2024-01-11T04:00:40;79.20;;;62.50;;
2157;SDS011;41972;48.774;9.282;2024-01-11T04:03:06;77.43;;;58.93;;
2157;SDS011;41972;48.774;9.282;2024-01-11T04:05:32;66.30;;;53.10;;
2157;SDS011;41972;48.774;9.282;2024-01-11T04:07:58;76.13;;;64.27;;
2157;SDS011;41972;48.774;9.282;2024-01-11T04:10:23;73.73;;;64.27;;
2157;SDS011;41972;48.774;9.282;2024-01-11T04:12:49;71.07;;;52.13;;
2157;SDS011;41972;48.774;9.282;2024-01-11T04:15:14;68.13;;;51.50;;
2157;SDS011;41972;48.774;9.282;2024-01-11T04:17:40;75.38;;;52.55;;
2157;SDS011;41972;48.774;9.282;2024-01-11T04:20:06;67.70;;;47.00;;
2157;SDS011;41972;48.774;9.282;2024-01-11T04:22:33;69.57;;;49.78;;
2157;SDS011;41972;48.774;9.282;2024-01-11T04:24:59;69.20;;;53.50;;
2157;SDS011;41972;48.774;9.282;2024-01-11T04:27:25;81.37;;;56.33;;
2157;SDS011;41972;48.774;9.282;2024-01-11T04:29:51;70.97;;;55.97;;
2157;SDS011;41972;48.774;9.282;2024-01-11T04:32:16;71.60;;;56.03;;
2157;SDS011;41972;48.774;9.282;2024-01-11T04:34:42;75.43;;;54.00;;
2157;SDS011;41972;48.774;9.282;2024-01-11T04:37:07;70.17;;;56.47;;
2157;SDS011;41972;48.774;9.282;2024-01-11T04:39:33;67.43;;;50.87;;
2157;SDS011;41972;48.774;9.282;2024-01-11T04:41:59;72.73;;;51.30;;
2157;SDS011;41972;48.774;9.282;2024-01-11T04:44:25;80.75;;;72.45;;
2157;SDS011;41972;48.774;9.282;2024-01-11T04:46:51;68.37;;;50.17;;
2157;SDS011;41972;48.774;9.282;2024-01-11T04:49:16;72.57;;;49.27;;
2157;SDS011;41972;48.774;9.282;2024-01-11T04:51:42;70.60;;;48.23;;
2157;SDS011;41972;48.774;9.282;2024-01-11T04:54:07;71.73;;;48.77;;
2157;SDS011;41972;48.774;9.282;2024-01-11T04:56:33;77.77;;;53.50;;
2157;SDS011;41972;48.774;9.282;2024-01-11T04:58:59;72.30;;;54.70;;
2157;SDS011;41972;48.774;9.282;2024-01-11T05:01:24;71.80;;;52.07;;
2157;SDS011;41972;48.774;9.282;2024-01-11T05:03:50;69.90;;;47.40;;
2157;SDS011;41972;48.774;9.282;2024-01-11T05:06:16;74.53;;;55.27;;
2157;SDS011;41972;48.774;9.282;2024-01-11T05:08:43;73.53;;;54.20;;
2157;SDS011;41972;48.774;9.282;2024-01-11T05:11:29;69.30;;;48.85;;
2157;SDS011;41972;48.774;9.282;2024-01-11T05:13:55;69.28;;;53.63;;
2157;SDS011;41972;48.774;9.282;2024-01-11T05:16:24;77.87;;;51.97;;
2157;SDS011;41972;48.774;9.282;2024-01-11T05:18:51;73.88;;;53.35;;
2157;SDS011;41972;48.774;9.282;2024-01-11T05:21:18;78.40;;;54.80;;
2157;SDS011;41972;48.774;9.282;2024-01-11T05:23:44;77.53;;;54.38;;
2157;SDS011;41972;48.774;9.282;2024-01-11T05:26:10;66.67;;;48.67;;
2157;SDS011;41972;48.774;9.282;2024-01-11T05:28:38;67.75;;;51.15;;
2157;SDS011;41972;48.774;9.282;2024-01-11T05:31:13;72.40;;;52.57;;
2157;SDS011;41972;48.774;9.282;2024-01-11T05:33:40;73.72;;;55.00;;
2157;SDS011;41972;48.774;9.282;2024-01-11T05:36:06;73.40;;;54.53;;
2157;SDS011;41972;48.774;9.282;2024-01-11T05:38:31;73.07;;;53.77;;
2157;SDS011;41972;48.774;9.282;2024-01-11T05:40:57;73.30;;;49.57;;
2157;SDS011;41972;48.774;9.282;2024-01-11T05:43:23;69.90;;;49.70;;
2157;SDS011;41972;48.774;9.282;2024-01-11T05:45:49;70.37;;;50.73;;
2157;SDS011;41972;48.774;9.282;2024-01-11T05:48:15;74.43;;;49.83;;
2157;SDS011;41972;48.774;9.282;2024-01-11T05:50:41;75.38;;;50.50;;
2157;SDS011;41972;48.774;9.282;2024-01-11T05:53:07;77.03;;;54.33;;
2157;SDS011;41972;48.774;9.282;2024-01-11T05:55:32;74.50;;;53.43;;
2157;SDS011;41972;48.774;9.282;2024-01-11T05:57:58;71.60;;;52.63;;
2157;SDS011;41972;48.774;9.282;2024-01-11T06:00:23;63.70;;;46.60;;
2157;SDS011;41972;48.774;9.282;2024-01-11T06:02:50;72.15;;;48.45;;
2157;SDS011;41972;48.774;9.282;2024-01-11T06:05:15;65.97;;;49.50;;
2157;SDS011;41972;48.774;9.282;2024-01-11T06:07:41;67.77;;;49.40;;
2157;SDS011;41972;48.774;9.282;2024-01-11T06:10:07;69.73;;;50.60;;
2157;SDS011;41972;48.774;9.282;2024-01-11T06:12:33;69.55;;;50.00;;
2157;SDS011;41972;48.774;9.282;2024-01-11T06:15:00;77.03;;;52.63;;
2157;SDS011;41972;48.774;9.282;2024-01-11T06:17:26;74.25;;;48.60;;
2157;SDS011;41972;48.774;9.282;2024-01-11T06:19:51;72.17;;;50.47;;
2157;SDS011;41972;48.774;9.282;2024-01-11T06:22:17;76.03;;;52.67;;
2157;SDS011;41972;48.774;9.282;2024-01-11T06:24:43;74.47;;;49.27;;
2157;SDS011;41972;48.774;9.282;2024-01-11T06:27:09;72.47;;;50.27;;
2157;SDS011;41972;48.774;9.282;2024-01-11T06:29:34;73.57;;;56.53;;
2157;SDS011;41972;48.774;9.282;2024-01-11T06:32:00;64.00;;;47.27;;
2157;SDS011;41972;48.774;9.282;2024-01-11T06:34:26;67.03;;;53.50;;
2157;SDS011;41972;48.774;9.282;2024-01-11T06:36:51;71.80;;;54.43;;
2157;SDS011;41972;48.774;9.282;2024-01-11T06:39:18;79.93;;;52.50;;
2157;SDS011;41972;48.774;9.282;2024-01-11T06:41:44;72.90;;;49.70;;
2157;SDS011;41972;48.774;9.282;2024-01-11T06:44:09;76.37;;;54.40;;
2157;SDS011;41972;48.774;9.282;2024-01-11T06:46:35;64.13;;;50.13;;
2157;SDS011;41972;48.774;9.282;2024-01-11T06:49:01;70.93;;;54.60;;
2157;SDS011;41972;48.774;9.282;2024-01-11T06:51:27;69.03;;;54.40;;
2157;SDS011;41972;48.774;9.282;2024-01-11T06:53:52;73.10;;;55.27;;
2157;SDS011;41972;48.774;9.282;2024-01-11T06:56:19;70.30;;;45.30;;
2157;SDS011;41972;48.774;9.282;2024-01-11T06:58:45;68.32;;;48.83;;
2157;SDS011;41972;48.774;9.282;2024-01-11T07:01:11;72.82;;;50.47;;
2157;SDS011;41972;48.774;9.282;2024-01-11T07:03:37;76.53;;;52.63;;
2157;SDS011;41972;48.774;9.282;2024-01-11T07:06:04;76.75;;;49.38;;
2157;SDS011;41972;48.774;9.282;2024-01-11T07:08:30;73.40;;;54.90;;
2157;SDS011;41972;48.774;9.282;2024-01-11T07:10:56;74.85;;;50.58;;
2157;SDS011;41972;48.774;9.282;2024-01-11T07:13:22;72.60;;;49.73;;
2157;SDS011;41972;48.774;9.282;2024-01-11T07:15:47;73.37;;;51.90;;
2157;SDS011;41972;48.774;9.282;2024-01-11T07:18:13;68.87;;;47.37;;
2157;SDS011;41972;48.774;9.282;2024-01-11T07:20:39;68.82;;;48.78;;
2157;SDS011;41972;48.774;9.282;2024-01-11T07:23:05;64.83;;;48.07;;
2157;SDS011;41972;48.774;9.282;2024-01-11T07:25:30;71.83;;;48.33;;
2157;SDS011;41972;48.774;9.282;2024-01-11T07:27:57;68.72;;;48.25;;
2157;SDS011;41972;48.774;9.282;2024-01-11T07:30:22;63.13;;;47.17;;
2157;SDS011;41972;48.774;9.282;2024-01-11T07:32:48;59.23;;;46.43;;
2157;SDS011;41972;48.774;9.282;2024-01-11T07:35:13;73.13;;;50.27;;
2157;SDS011;41972;48.774;9.282;2024-01-11T07:37:39;78.67;;;52.77;;
2157;SDS011;41972;48.774;9.282;2024-01-11T07:40:05;69.13;;;50.00;;
2157;SDS011;41972;48.774;9.282;2024-01-11T07:42:39;65.50;;;51.05;;
2157;SDS011;41972;48.774;9.282;2024-01-11T07:45:08;72.05;;;46.92;;
2157;SDS011;41972;48.774;9.282;2024-01-11T07:47:37;66.75;;;44.70;;
2157;SDS011;41972;48.774;9.282;2024-01-11T07:50:07;61.15;;;46.25;;
2157;SDS011;41972;48.774;9.282;2024-01-11T07:52:37;76.00;;;63.90;;
2157;SDS011;41972;48.774;9.282;2024-01-11T07:55:03;68.13;;;49.87;;
2157;SDS011;41972;48.774;9.282;2024-01-11T07:57:36;71.18;;;62.72;;
2157;SDS011;41972;48.774;9.282;2024-01-11T08:00:02;71.93;;;47.15;;
2157;SDS011;41972;48.774;9.282;2024-01-11T08:02:31;64.13;;;46.25;;
2157;SDS011;41972;48.774;9.282;2024-01-11T08:04:57;63.23;;;45.90;;
2157;SDS011;41972;48.774;9.282;2024-01-11T08:07:24;68.55;;;47.15;;
2157;SDS011;41972;48.774;9.282;2024-01-11T08:09:50;66.65;;;54.10;;
2157;SDS011;41972;48.774;9.282;2024-01-11T08:12:16;72.00;;;49.50;;
2157;SDS011;41972;48.774;9.282;2024-01-11T08:14:41;64.20;;;51.70;;
2157;SDS011;41972;48.774;9.282;2024-01-11T08:17:07;62.90;;;46.87;;
2157;SDS011;41972;48.774;9.282;2024-01-11T08:19:33;61.60;;;45.23;;
2157;SDS011;41972;48.774;9.282;2024-01-11T08:21:59;62.13;;;46.30;;
2157;SDS011;41972;48.774;9.282;2024-01-11T08:24:25;63.57;;;48.03;;
2157;SDS011;41972;48.774;9.282;2024-01-11T08:26:51;61.33;;;41.90;;
2157;SDS011;41972;48.774;9.282;2024-01-11T08:29:17;67.67;;;48.63;;
2157;SDS011;41972;48.774;9.282;2024-01-11T08:31:44;72.43;;;64.78;;
2157;SDS011;41972;48.774;9.282;2024-01-11T08:34:10;65.57;;;55.97;;
2157;SDS011;41972;48.774;9.282;2024-01-11T08:36:36;69.20;;;62.20;;
2157;SDS011;41972;48.774;9.282;2024-01-11T08:39:03;71.00;;;64.00;;
2157;SDS011;41972;48.774;9.282;2024-01-11T08:41:33;60.95;;;52.65;;
2157;SDS011;41972;48.774;9.282;2024-01-11T08:44:00;70.25;;;62.72;;
2157;SDS011;41972;48.774;9.282;2024-01-11T08:46:27;71.20;;;64.00;;
2157;SDS011;41972;48.774;9.282;2024-01-11T08:48:53;71.20;;;64.18;;
2157;SDS011;41972;48.774;9.282;2024-01-11T08:51:21;63.55;;;56.95;;
2157;SDS011;41972;48.774;9.282;2024-01-11T08:53:46;60.00;;;54.00;;
2157;SDS011;41972;48.774;9.282;2024-01-11T08:56:12;59.80;;;53.40;;
2157;SDS011;41972;48.774;9.282;2024-01-11T08:58:39;63.83;;;56.47;;
2157;SDS011;41972;48.774;9.282;2024-01-11T09:01:05;66.82;;;59.70;;
2157;SDS011;41972;48.774;9.282;2024-01-11T09:03:33;59.13;;;52.88;;
2157;SDS011;41972;48.774;9.282;2024-01-11T09:05:59;62.30;;;56.50;;
2157;SDS011;41972;48.774;9.282;2024-01-11T09:08:24;50.50;;;45.07;;
2157;SDS011;41972;48.774;9.282;2024-01-11T09:10:50;62.53;;;56.73;;
2157;SDS011;41972;48.774;9.282;2024-01-11T09:13:15;51.57;;;46.57;;
2157;SDS011;41972;48.774;9.282;2024-01-11T09:15:41;54.73;;;49.63;;
2157;SDS011;41972;48.774;9.282;2024-01-11T09:18:07;50.93;;;45.40;;
2157;SDS011;41972;48.774;9.282;2024-01-11T09:20:33;52.27;;;46.93;;
2157;SDS011;41972;48.774;9.282;2024-01-11T09:22:59;54.03;;;49.07;;
2157;SDS011;41972;48.774;9.282;2024-01-11T09:25:28;55.53;;;50.00;;
2157;SDS011;41972;48.774;9.282;2024-01-11T09:27:54;63.07;;;57.50;;
2157;SDS011;41972;48.774;9.282;2024-01-11T09:30:19;46.80;;;42.10;;
2157;SDS011;41972;48.774;9.282;2024-01-11T09:32:45;47.17;;;42.67;;
2157;SDS011;41972;48.774;9.282;2024-01-11T09:35:11;47.67;;;42.80;;
2157;SDS011;41972;48.774;9.282;2024-01-11T09:37:36;54.90;;;49.53;;
2157;SDS011;41972;48.774;9.282;2024-01-11T09:40:02;49.60;;;44.40;;
2157;SDS011;41972;48.774;9.282;2024-01-11T09:42:28;71.33;;;65.80;;
2157;SDS011;41972;48.774;9.282;2024-01-11T09:44:54;52.93;;;47.60;;
2157;SDS011;41972;48.774;9.282;2024-01-11T09:47:22;55.30;;;49.87;;
2157;SDS011;41972;48.774;9.282;2024-01-11T09:49:49;60.17;;;54.87;;
2157;SDS011;41972;48.774;9.282;2024-01-11T09:52:16;64.73;;;59.43;;
2157;SDS011;41972;48.774;9.282;2024-01-11T09:54:45;52.47;;;47.33;;
2157;SDS011;41972;48.774;9.282;2024-01-11T09:57:10;47.83;;;43.33;;
2157;SDS011;41972;48.774;9.282;2024-01-11T09:59:36;53.17;;;48.57;;
2157;SDS011;41972;48.774;9.282;2024-01-11T10:02:02;60.47;;;55.47;;
2157;SDS011;41972;48.774;9.282;2024-01-11T10:04:28;59.67;;;54.53;;
2157;SDS011;41972;48.774;9.282;2024-01-11T10:06:54;56.27;;;51.47;;
2157;SDS011;41972;48.774;9.282;2024-01-11T10:09:21;61.77;;;56.27;;
2157;SDS011;41972;48.774;9.282;2024-01-11T10:11:47;52.00;;;47.30;;
2157;SDS011;41972;48.774;9.282;2024-01-11T10:14:14;48.27;;;43.83;;
2157;SDS011;41972;48.774;9.282;2024-01-11T10:16:41;46.70;;;42.20;;
2157;SDS011;41972;48.774;9.282;2024-01-11T10:19:08;55.47;;;50.60;;
2157;SDS011;41972;48.774;9.282;2024-01-11T10:21:37;47.37;;;43.10;;
2157;SDS011;41972;48.774;9.282;2024-01-11T10:24:04;44.20;;;39.87;;
2157;SDS011;41972;48.774;9.282;2024-01-11T10:26:30;43.17;;;38.87;;
2157;SDS011;41972;48.774;9.282;2024-01-11T10:28:58;51.70;;;46.90;;
2157;SDS011;41972;48.774;9.282;2024-01-11T10:31:24;45.93;;;41.63;;
2157;SDS011;41972;48.774;9.282;2024-01-11T10:33:52;62.57;;;57.37;;
2157;SDS011;41972;48.774;9.282;2024-01-11T10:36:18;49.13;;;44.53;;
2157;SDS011;41972;48.774;9.282;2024-01-11T10:38:43;57.23;;;52.43;;
2157;SDS011;41972;48.774;9.282;2024-01-11T10:41:12;48.40;;;44.30;;
2157;SDS011;41972;48.774;9.282;2024-01-11T10:43:42;50.03;;;45.50;;
2157;SDS011;41972;48.774;9.282;2024-01-11T10:46:08;63.97;;;59.40;;
2157;SDS011;41972;48.774;9.282;2024-01-11T10:48:38;52.93;;;48.50;;
2157;SDS011;41972;48.774;9.282;2024-01-11T10:51:08;68.03;;;62.67;;
2157;SDS011;41972;48.774;9.282;2024-01-11T10:56:06;50.03;;;45.27;;
2157;SDS011;41972;48.774;9.282;2024-01-11T10:58:33;56.73;;;51.57;;
2157;SDS011;41972;48.774;9.282;2024-01-11T11:01:00;48.93;;;44.33;;
2157;SDS011;41972;48.774;9.282;2024-01-11T11:03:27;57.17;;;52.07;;
2157;SDS011;41972;48.774;9.282;2024-01-11T11:05:53;61.33;;;56.23;;
2157;SDS011;41972;48.774;9.282;2024-01-11T11:08:22;61.27;;;56.17;;
2157;SDS011;41972;48.774;9.282;2024-01-11T11:10:55;62.07;;;56.73;;
2157;SDS011;41972;48.774;9.282;2024-01-11T11:13:22;54.40;;;49.23;;
2157;SDS011;41972;48.774;9.282;2024-01-11T11:15:48;57.57;;;52.57;;
2157;SDS011;41972;48.774;9.282;2024-01-11T11:18:16;51.70;;;46.80;;
2157;SDS011;41972;48.774;9.282;2024-01-11T11:20:43;46.47;;;42.07;;
2157;SDS011;41972;48.774;9.282;2024-01-11T11:23:10;56.23;;;51.00;;
2157;SDS011;41972;48.774;9.282;2024-01-11T11:25:37;58.50;;;53.53;;
2157;SDS011;41972;48.774;9.282;2024-01-11T11:28:05;48.07;;;43.47;;
2157;SDS011;41972;48.774;9.282;2024-01-11T11:30:37;49.27;;;44.70;;
2157;SDS011;41972;48.774;9.282;2024-01-11T11:33:09;52.37;;;47.37;;
2157;SDS011;41972;48.774;9.282;2024-01-11T11:35:41;50.20;;;45.40;;
2157;SDS011;41972;48.774;9.282;2024-01-11T11:38:07;52.07;;;47.40;;
2157;SDS011;41972;48.774;9.282;2024-01-11T11:40:37;53.50;;;48.17;;
2157;SDS011;41972;48.774;9.282;2024-01-11T11:43:07;45.70;;;41.20;;
2157;SDS011;41972;48.774;9.282;2024-01-11T11:45:34;53.43;;;48.37;;
2157;SDS011;41972;48.774;9.282;2024-01-11T11:48:00;58.27;;;52.83;;
2157;SDS011;41972;48.774;9.282;2024-01-11T11:50:26;69.17;;;63.57;;
2157;SDS011;41972;48.774;9.282;2024-01-11T11:52:55;64.57;;;58.67;;
2157;SDS011;41972;48.774;9.282;2024-01-11T11:55:24;108.10;;;101.20;;
2157;SDS011;41972;48.774;9.282;2024-01-11T11:57:50;53.97;;;48.87;;
2157;SDS011;41972;48.774;9.282;2024-01-11T12:00:17;54.53;;;49.40;;
2157;SDS011;41972;48.774;9.282;2024-01-11T12:02:42;53.87;;;48.37;;
2157;SDS011;41972;48.774;9.282;2024-01-11T12:05:08;58.17;;;52.77;;
2157;SDS011;41972;48.774;9.282;2024-01-11T12:07:33;58.83;;;53.53;;
2157;SDS011;41972;48.774;9.282;2024-01-11T12:09:59;53.23;;;48.10;;
2157;SDS011;41972;48.774;9.282;2024-01-11T12:12:25;51.93;;;46.67;;
2157;SDS011;41972;48.774;9.282;2024-01-11T12:14:51;52.30;;;47.07;;
2157;SDS011;41972;48.774;9.282;2024-01-11T12:17:18;60.43;;;54.93;;
2157;SDS011;41972;48.774;9.282;2024-01-11T12:19:44;56.70;;;51.10;;
2157;SDS011;41972;48.774;9.282;2024-01-11T12:22:10;62.23;;;56.77;;
2157;SDS011;41972;48.774;9.282;2024-01-11T12:24:35;57.60;;;52.37;;
2157;SDS011;41972;48.774;9.282;2024-01-11T12:27:02;59.07;;;53.17;;
2157;SDS011;41972;48.774;9.282;2024-01-11T12:29:30;56.30;;;50.87;;
2157;SDS011;41972;48.774;9.282;2024-01-11T12:31:56;56.10;;;50.53;;
2157;SDS011;41972;48.774;9.282;2024-01-11T12:34:23;55.40;;;49.90;;
2157;SDS011;41972;48.774;9.282;2024-01-11T12:36:50;60.67;;;54.87;;
2157;SDS011;41972;48.774;9.282;2024-01-11T12:39:18;56.63;;;50.77;;
2157;SDS011;41972;48.774;9.282;2024-01-11T12:41:44;62.23;;;56.40;;
2157;SDS011;41972;48.774;9.282;2024-01-11T12:44:09;77.07;;;70.60;;
2157;SDS011;41972;48.774;9.282;2024-01-11T12:46:35;56.60;;;51.30;;
2157;SDS011;41972;48.774;9.282;2024-01-11T12:49:00;53.63;;;48.30;;
2157;SDS011;41972;48.774;9.282;2024-01-11T12:51:26;50.00;;;44.07;;
2157;SDS011;41972;48.774;9.282;2024-01-11T12:53:52;57.60;;;52.00;;
2157;SDS011;41972;48.774;9.282;2024-01-11T12:56:18;52.87;;;47.57;;
2157;SDS011;41972;48.774;9.282;2024-01-11T12:58:46;51.10;;;45.70;;
2157;SDS011;41972;48.774;9.282;2024-01-11T13:01:12;52.03;;;46.60;;
2157;SDS011;41972;48.774;9.282;2024-01-11T13:03:39;49.20;;;44.40;;
2157;SDS011;41972;48.774;9.282;2024-01-11T13:06:09;54.53;;;48.93;;
2157;SDS011;41972;48.774;9.282;2024-01-11T13:08:36;51.73;;;46.20;;
2157;SDS011;41972;48.774;9.282;2024-01-11T13:11:04;53.50;;;48.27;;
2157;SDS011;41972;48.774;9.282;2024-01-11T13:13:32;51.50;;;46.50;;
2157;SDS011;41972;48.774;9.282;2024-01-11T13:15:58;53.27;;;48.17;;
2157;SDS011;41972;48.774;9.282;2024-01-11T13:18:24;56.63;;;51.00;;
2157;SDS011;41972;48.774;9.282;2024-01-11T13:20:49;55.13;;;49.80;;
2157;SDS011;41972;48.774;9.282;2024-01-11T13:23:15;57.97;;;52.37;;
2157;SDS011;41972;48.774;9.282;2024-01-11T13:25:42;69.70;;;63.70;;
2157;SDS011;41972;48.774;9.282;2024-01-11T13:28:08;58.57;;;52.77;;
2157;SDS011;41972;48.774;9.282;2024-01-11T13:30:36;53.00;;;47.87;;
2157;SDS011;41972;48.774;9.282;2024-01-11T13:33:02;55.90;;;50.60;;
2157;SDS011;41972;48.774;9.282;2024-01-11T13:35:28;58.37;;;52.63;;
2157;SDS011;41972;48.774;9.282;2024-01-11T13:37:53;59.10;;;53.27;;
2157;SDS011;41972;48.774;9.282;2024-01-11T13:40:19;59.53;;;53.40;;
2157;SDS011;41972;48.774;9.282;2024-01-11T13:42:44;57.63;;;51.83;;
2157;SDS011;41972;48.774;9.282;2024-01-11T13:45:10;58.83;;;53.30;;
2157;SDS011;41972;48.774;9.282;2024-01-11T13:47:36;60.27;;;54.37;;
2157;SDS011;41972;48.774;9.282;2024-01-11T13:50:01;60.30;;;54.40;;
2157;SDS011;41972;48.774;9.282;2024-01-11T13:52:27;51.90;;;46.40;;
2157;SDS011;41972;48.774;9.282;2024-01-11T13:54:52;57.23;;;51.57;;
2157;SDS011;41972;48.774;9.282;2024-01-11T13:57:18;54.30;;;48.90;;
2157;SDS011;41972;48.774;9.282;2024-01-11T13:59:43;57.50;;;51.63;;
2157;SDS011;41972;48.774;9.282;2024-01-11T14:02:09;54.40;;;49.10;;
2157;SDS011;41972;48.774;9.282;2024-01-11T14:04:34;63.70;;;57.97;;
2157;SDS011;41972;48.774;9.282;2024-01-11T14:07:00;55.33;;;49.87;;
2157;SDS011;41972;48.774;9.282;2024-01-11T14:09:28;54.80;;;49.37;;
2157;SDS011;41972;48.774;9.282;2024-01-11T14:11:53;53.60;;;48.40;;
2157;SDS011;41972;48.774;9.282;2024-01-11T14:14:19;54.80;;;49.50;;
2157;SDS011;41972;48.774;9.282;2024-01-11T14:16:45;56.40;;;50.70;;
2157;SDS011;41972;48.774;9.282;2024-01-11T14:19:11;58.07;;;52.33;;
2157;SDS011;41972;48.774;9.282;2024-01-11T14:21:37;58.07;;;52.10;;
2157;SDS011;41972;48.774;9.282;2024-01-11T14:24:03;59.47;;;53.97;;
2157;SDS011;41972;48.774;9.282;2024-01-11T14:26:30;58.57;;;52.27;;
2157;SDS011;41972;48.774;9.282;2024-01-11T14:28:56;57.00;;;51.20;;
2157;SDS011;41972;48.774;9.282;2024-01-11T14:31:23;60.33;;;54.37;;